createdAt,value
2023-04-28T00:02:24.850Z,98467.84
2023-04-28T00:05:27.865Z,98474.69
2023-04-28T00:08:30.887Z,98477.47
2023-04-28T00:11:33.594Z,98470.16
2023-04-28T00:14:36.396Z,98480.16
2023-04-28T00:17:39.121Z,98475.69
2023-04-28T00:20:41.915Z,98482.13
2023-04-28T00:23:44.571Z,98471.47
2023-04-28T00:26:47.540Z,98481.38
2023-04-28T00:29:50.229Z,98484.81
2023-04-28T00:32:53.588Z,98477.75
2023-04-28T00:36:01.321Z,98484.47
2023-04-28T00:39:04.324Z,98483.00
2023-04-28T00:42:07.114Z,98483.34
2023-04-28T00:45:10.038Z,98487.81
2023-04-28T00:48:14.326Z,98482.16
2023-04-28T00:51:19.640Z,98482.06
2023-04-28T00:54:22.315Z,98481.72
2023-04-28T00:57:25.131Z,98488.00
2023-04-28T01:00:27.841Z,98486.44
2023-04-28T01:03:30.686Z,98486.41
2023-04-28T01:06:34.362Z,98484.47
2023-04-28T01:09:38.053Z,98481.88
2023-04-28T01:12:42.101Z,98481.22
2023-04-28T01:15:44.750Z,98479.63
2023-04-28T01:18:48.712Z,98484.75
2023-04-28T01:21:51.804Z,98475.63
2023-04-28T01:24:56.661Z,98478.97
2023-04-28T01:27:59.822Z,98475.09
2023-04-28T01:31:03.994Z,98483.50
2023-04-28T01:34:06.916Z,98478.31
2023-04-28T01:37:09.745Z,98477.13
2023-04-28T01:40:13.632Z,98475.66
2023-04-28T01:43:16.516Z,98469.75
2023-04-28T01:46:19.206Z,98473.50
2023-04-28T01:49:22.121Z,98475.09
2023-04-28T01:52:25.123Z,98478.09
2023-04-28T01:55:28.233Z,98477.72
2023-04-28T01:58:32.036Z,98484.56
2023-04-28T02:01:35.070Z,98481.63
2023-04-28T02:04:41.349Z,98477.44
2023-04-28T02:07:44.593Z,98479.38
2023-04-28T02:10:47.255Z,98475.78
2023-04-28T02:13:51.106Z,98483.72
2023-04-28T02:16:53.909Z,98487.41
2023-04-28T02:19:57.150Z,98486.38
2023-04-28T02:22:59.747Z,98484.66
2023-04-28T02:26:04.171Z,98487.25
2023-04-28T02:29:06.932Z,98488.41
2023-04-28T02:32:09.716Z,98472.78
2023-04-28T02:35:12.726Z,98480.88
2023-04-28T02:38:15.462Z,98498.28
2023-04-28T02:41:19.193Z,98487.31
2023-04-28T02:44:22.044Z,98481.47
2023-04-28T02:47:27.246Z,98489.91
2023-04-28T02:50:29.921Z,98488.09
2023-04-28T02:53:32.594Z,98486.44
2023-04-28T02:56:36.024Z,98484.00
2023-04-28T02:59:40.202Z,98489.09
2023-04-28T03:02:45.629Z,98488.91
2023-04-28T03:05:48.404Z,98490.09
2023-04-28T03:08:52.238Z,98495.47
2023-04-28T03:11:54.934Z,98496.13
2023-04-28T03:15:00.144Z,98493.88
2023-04-28T03:18:03.142Z,98481.06
2023-04-28T03:21:06.489Z,98488.41
2023-04-28T03:24:09.389Z,98487.66
2023-04-28T03:27:12.673Z,98490.19
2023-04-28T03:30:15.375Z,98478.06
2023-04-28T03:33:18.313Z,98479.88
2023-04-28T03:36:20.922Z,98484.41
2023-04-28T03:39:23.743Z,98482.91
2023-04-28T03:42:26.525Z,98473.91
2023-04-28T03:45:46.551Z,98481.00
2023-04-28T03:48:50.117Z,98471.59
2023-04-28T03:51:55.365Z,98472.38
2023-04-28T03:54:58.191Z,98468.91
2023-04-28T03:58:01.134Z,98471.09
2023-04-28T04:01:04.100Z,98472.03
2023-04-28T04:04:07.927Z,98468.63
2023-04-28T04:07:11.195Z,98469.28
2023-04-28T04:10:13.969Z,98475.78
2023-04-28T04:13:19.783Z,98481.91
2023-04-28T04:16:23.514Z,98477.84
2023-04-28T04:19:29.238Z,98480.91
2023-04-28T04:22:32.285Z,98486.66
2023-04-28T04:25:35.633Z,98477.09
2023-04-28T04:28:39.524Z,98468.75
2023-04-28T04:31:45.873Z,98477.91
2023-04-28T04:34:48.981Z,98476.88
2023-04-28T04:37:52.169Z,98474.06
2023-04-28T04:40:56.169Z,98480.50
2023-04-28T04:43:59.019Z,98486.88
2023-04-28T04:47:07.775Z,98492.69
2023-04-28T04:50:12.806Z,98492.38
2023-04-28T04:53:16.597Z,98495.22
2023-04-28T04:56:20.735Z,98495.09
2023-04-28T04:59:24.110Z,98492.31
2023-04-28T05:02:41.818Z,98483.50
2023-04-28T05:05:48.165Z,98484.31
2023-04-28T05:09:04.703Z,98486.41
2023-04-28T05:12:09.402Z,98486.47
2023-04-28T05:15:12.883Z,98483.47
2023-04-28T05:18:22.336Z,98493.91
2023-04-28T05:21:25.086Z,98495.75
2023-04-28T05:24:28.487Z,98493.38
2023-04-28T05:27:31.519Z,98486.75
2023-04-28T05:30:35.409Z,98486.16
2023-04-28T05:33:38.571Z,98489.81
2023-04-28T05:36:42.035Z,98481.44
2023-04-28T05:39:47.075Z,98482.72
2023-04-28T05:42:50.618Z,98489.19
2023-04-28T05:45:53.769Z,98489.97
2023-04-28T05:48:57.241Z,98486.13
2023-04-28T05:52:00.457Z,98484.75
2023-04-28T05:55:04.060Z,98479.84
2023-04-28T05:58:07.202Z,98472.03
2023-04-28T06:01:10.263Z,98478.31
2023-04-28T06:04:15.140Z,98479.56
2023-04-28T06:07:20.786Z,98479.28
2023-04-28T06:10:26.692Z,98478.00
2023-04-28T06:13:29.609Z,98482.03
2023-04-28T06:16:32.610Z,98478.03
2023-04-28T06:19:35.360Z,98464.59
2023-04-28T06:22:38.069Z,98475.94
2023-04-28T06:25:42.600Z,98470.69
2023-04-28T06:28:45.523Z,98471.81
2023-04-28T06:31:48.950Z,98470.66
2023-04-28T06:34:52.196Z,98465.28
2023-04-28T06:37:55.104Z,98466.22
2023-04-28T06:40:59.217Z,98459.63
2023-04-28T06:44:02.604Z,98465.69
2023-04-28T06:47:06.849Z,98466.66
2023-04-28T06:50:10.206Z,98468.91
2023-04-28T06:53:13.560Z,98459.75
2023-04-28T06:56:16.313Z,98460.66
2023-04-28T06:59:19.002Z,98463.13
2023-04-28T07:02:23.925Z,98461.81
2023-04-28T07:05:27.488Z,98460.44
2023-04-28T07:08:31.180Z,98451.00
2023-04-28T07:11:33.808Z,98458.91
2023-04-28T07:14:36.547Z,98453.06
2023-04-28T07:17:39.508Z,98454.53
2023-04-28T07:20:42.288Z,98456.50
2023-04-28T07:23:46.295Z,98454.75
2023-04-28T07:26:49.156Z,98448.47
2023-04-28T07:29:52.102Z,98448.06
2023-04-28T07:32:55.081Z,98440.09
2023-04-28T07:35:59.130Z,98436.88
2023-04-28T07:39:02.425Z,98436.25
2023-04-28T07:42:05.361Z,98425.06
2023-04-28T07:45:08.743Z,98432.75
2023-04-28T07:48:11.759Z,98421.38
2023-04-28T07:51:14.448Z,98424.00
2023-04-28T07:54:17.509Z,98421.75
2023-04-28T07:57:20.452Z,98427.31
2023-04-28T08:00:23.324Z,98424.25
2023-04-28T08:03:27.527Z,98417.31
2023-04-28T08:06:30.452Z,98418.50
2023-04-28T08:09:33.412Z,98412.38
2023-04-28T08:12:36.159Z,98418.66
2023-04-28T08:15:39.063Z,98418.06
2023-04-28T08:18:42.003Z,98416.78
2023-04-28T08:21:44.832Z,98425.16
2023-04-28T08:24:47.516Z,98420.25
2023-04-28T08:27:50.177Z,98412.97
2023-04-28T08:30:55.101Z,98408.28
2023-04-28T08:33:57.827Z,98410.22
2023-04-28T08:37:01.149Z,98407.16
2023-04-28T08:40:10.097Z,98400.19
2023-04-28T08:43:14.063Z,98405.09
2023-04-28T08:46:17.235Z,98402.81
2023-04-28T08:49:24.319Z,98403.28
2023-04-28T08:52:28.181Z,98402.81
2023-04-28T08:55:31.904Z,98403.38
2023-04-28T08:58:36.353Z,98389.88
2023-04-28T09:01:39.696Z,98403.16
2023-04-28T09:04:42.737Z,98402.91
2023-04-28T09:07:50.601Z,98405.78
2023-04-28T09:11:13.879Z,98412.78
2023-04-28T09:14:16.745Z,98410.41
2023-04-28T09:17:19.709Z,98408.78
2023-04-28T09:20:23.345Z,98412.56
2023-04-28T09:23:26.936Z,98409.38
2023-04-28T09:26:49.099Z,98398.91
2023-04-28T09:29:54.994Z,98386.41
2023-04-28T09:33:11.237Z,98393.19
2023-04-28T09:36:27.050Z,98382.03
2023-04-28T09:39:32.119Z,98369.50
2023-04-28T09:42:42.857Z,98364.41
2023-04-28T09:45:46.421Z,98375.03
2023-04-28T09:48:49.158Z,98364.66
2023-04-28T09:51:51.885Z,98359.59
2023-04-28T09:54:55.886Z,98353.06
2023-04-28T09:58:02.259Z,98352.56
2023-04-28T10:01:06.631Z,98345.47
2023-04-28T10:04:12.291Z,98345.63
2023-04-28T10:07:17.154Z,98333.44
2023-04-28T10:10:20.407Z,98328.47
2023-04-28T10:13:23.618Z,98320.84
2023-04-28T10:16:30.874Z,98314.16
2023-04-28T10:19:38.023Z,98323.09
2023-04-28T10:23:36.593Z,98314.09
2023-04-28T10:27:07.422Z,98309.41
2023-04-28T10:30:23.072Z,98306.53
2023-04-28T10:33:30.226Z,98310.66
2023-04-28T10:36:55.387Z,98302.72
2023-04-28T10:40:37.181Z,98287.44
2023-04-28T10:43:43.217Z,98275.94
2023-04-28T10:47:04.248Z,98262.09
2023-04-28T10:50:09.465Z,98259.25
2023-04-28T10:53:12.487Z,98257.16
2023-04-28T10:56:26.497Z,98255.16
2023-04-28T10:59:29.451Z,98251.50
2023-04-28T11:02:44.423Z,98258.59
2023-04-28T11:06:21.798Z,98259.69
2023-04-28T11:09:36.515Z,98254.97
2023-04-28T11:13:17.987Z,98259.00
2023-04-28T11:16:25.963Z,98253.41
2023-04-28T11:19:36.747Z,98258.41
2023-04-28T11:22:40.234Z,98255.97
2023-04-28T11:25:59.544Z,98258.03
2023-04-28T11:29:02.391Z,98258.94
2023-04-28T11:32:08.974Z,98265.88
2023-04-28T11:35:12.156Z,98254.09
2023-04-28T11:38:15.034Z,98244.91
2023-04-28T11:41:17.866Z,98241.00
2023-04-28T11:44:22.735Z,98228.13
2023-04-28T11:47:33.169Z,98221.50
2023-04-28T11:50:37.301Z,98220.63
2023-04-28T11:53:44.025Z,98223.59
2023-04-28T11:56:47.195Z,98218.66
2023-04-28T11:59:51.145Z,98215.34
2023-04-28T12:02:54.691Z,98199.50
2023-04-28T12:05:57.815Z,98206.03
2023-04-28T12:09:04.911Z,98181.84
2023-04-28T12:12:45.168Z,98180.63
2023-04-28T12:15:57.261Z,98174.94
2023-04-28T12:19:04.918Z,98162.91
2023-04-28T12:22:08.003Z,98159.63
2023-04-28T12:25:12.954Z,98155.31
2023-04-28T12:28:15.636Z,98155.53
2023-04-28T12:31:19.950Z,98160.97
2023-04-28T12:34:22.926Z,98164.47
2023-04-28T12:37:25.980Z,98150.31
2023-04-28T12:40:29.009Z,98157.28
2023-04-28T12:43:31.866Z,98162.03
2023-04-28T12:46:34.800Z,98170.69
2023-04-28T12:49:38.270Z,98175.28
2023-04-28T12:52:43.485Z,98168.81
2023-04-28T12:55:46.482Z,98163.47
2023-04-28T12:58:49.312Z,98157.69
2023-04-28T13:01:52.253Z,98144.34
2023-04-28T13:04:55.411Z,98119.97
2023-04-28T13:07:58.414Z,98106.13
2023-04-28T13:11:04.875Z,98122.94
2023-04-28T13:14:10.231Z,98128.53
2023-04-28T13:17:13.904Z,98126.03
2023-04-28T13:20:16.902Z,98126.25
2023-04-28T13:23:19.990Z,98129.97
2023-04-28T13:26:25.966Z,98126.69
2023-04-28T13:29:29.071Z,98106.72
2023-04-28T13:32:32.294Z,98101.13
2023-04-28T13:35:35.244Z,98099.28
2023-04-28T13:38:41.060Z,98097.06
2023-04-28T13:41:44.193Z,98112.66
2023-04-28T13:44:49.556Z,98127.53
2023-04-28T13:47:52.593Z,98137.31
2023-04-28T13:50:55.620Z,98132.44
2023-04-28T13:53:58.859Z,98129.44
2023-04-28T13:57:02.077Z,98119.94
2023-04-28T14:00:06.030Z,98118.03
2023-04-28T14:03:10.519Z,98112.91
2023-04-28T14:06:13.970Z,98107.78
2023-04-28T14:09:17.162Z,98112.16
2023-04-28T14:12:20.539Z,98100.78
2023-04-28T14:15:24.354Z,98101.16
2023-04-28T14:18:28.381Z,98115.19
2023-04-28T14:21:31.836Z,98107.97
2023-04-28T14:24:34.880Z,98097.88
2023-04-28T14:27:37.876Z,98087.72
2023-04-28T14:30:40.871Z,98087.44
2023-04-28T14:33:43.748Z,98091.00
2023-04-28T14:36:48.461Z,98092.91
2023-04-28T14:39:51.596Z,98087.09
2023-04-28T14:42:54.429Z,98090.28
2023-04-28T14:45:57.317Z,98095.19
2023-04-28T14:49:00.230Z,98093.13
2023-04-28T14:52:03.101Z,98088.91
2023-04-28T14:55:06.099Z,98084.56
2023-04-28T14:58:09.080Z,98079.97
2023-04-28T15:01:12.184Z,98085.25
2023-04-28T15:04:15.323Z,98066.72
2023-04-28T15:07:18.598Z,98066.94
2023-04-28T15:10:21.799Z,98066.06
2023-04-28T15:13:28.914Z,98058.56
2023-04-28T15:16:31.974Z,98057.84
2023-04-28T15:19:35.280Z,98063.50
2023-04-28T15:22:38.201Z,98055.78
2023-04-28T15:25:41.830Z,98045.47
2023-04-28T15:28:44.611Z,98051.78
2023-04-28T15:31:47.551Z,98042.50
2023-04-28T15:34:50.747Z,98037.81
2023-04-28T15:37:57.985Z,98032.91
2023-04-28T15:41:03.247Z,98030.88
2023-04-28T15:44:08.741Z,98036.53
2023-04-28T15:47:11.674Z,98026.78
2023-04-28T15:50:14.489Z,98026.72
2023-04-28T15:53:17.733Z,98021.94
2023-04-28T15:56:20.911Z,98017.63
2023-04-28T15:59:24.700Z,98014.78
2023-04-28T16:02:27.896Z,98008.25
2023-04-28T16:05:30.879Z,98013.78
2023-04-28T16:08:33.744Z,98018.69
2023-04-28T16:11:36.769Z,98016.91
2023-04-28T16:14:40.028Z,98001.19
2023-04-28T16:17:44.591Z,98008.34
2023-04-28T16:20:47.539Z,98002.25
2023-04-28T16:23:53.579Z,97994.47
2023-04-28T16:26:56.307Z,98002.72
2023-04-28T16:30:00.017Z,97988.91
2023-04-28T16:33:03.052Z,97990.06
2023-04-28T16:36:06.254Z,97991.97
2023-04-28T16:39:10.264Z,97993.56
2023-04-28T16:42:13.218Z,97980.06
2023-04-28T16:45:16.994Z,97978.91
2023-04-28T16:48:21.034Z,97984.72
2023-04-28T16:51:23.904Z,97976.19
2023-04-28T16:54:28.551Z,97982.13
2023-04-28T16:57:31.442Z,97979.19
2023-04-28T17:00:34.243Z,97988.94
2023-04-28T17:03:42.344Z,97995.31
2023-04-28T17:06:45.853Z,97987.25
2023-04-28T17:09:49.251Z,97980.88
2023-04-28T17:12:53.027Z,97992.06
2023-04-28T17:15:57.844Z,97981.22
2023-04-28T17:19:01.603Z,97977.78
2023-04-28T17:22:04.373Z,97985.22
2023-04-28T17:25:07.993Z,97980.81
2023-04-28T17:28:11.210Z,97976.53
2023-04-28T17:31:14.084Z,97977.91
2023-04-28T17:34:20.545Z,97980.34
2023-04-28T17:37:23.686Z,97979.72
2023-04-28T17:40:27.459Z,97981.69
2023-04-28T17:43:31.264Z,97981.72
2023-04-28T17:46:34.646Z,97972.19
2023-04-28T17:49:39.594Z,97983.38
2023-04-28T17:52:44.092Z,97980.78
2023-04-28T17:55:47.269Z,97987.69
2023-04-28T17:58:50.287Z,97990.63
2023-04-28T18:01:56.689Z,97994.56
2023-04-28T18:04:59.740Z,97993.59
2023-04-28T18:08:06.806Z,97992.28
2023-04-28T18:11:10.421Z,97993.25
2023-04-28T18:14:15.914Z,97991.94
2023-04-28T18:17:19.172Z,97992.06
2023-04-28T18:20:22.197Z,97994.53
2023-04-28T18:23:26.594Z,97995.34
2023-04-28T18:26:29.813Z,97991.59
2023-04-28T18:29:32.784Z,97991.53
2023-04-28T18:32:36.320Z,97997.13
2023-04-28T18:35:39.145Z,97988.72
2023-04-28T18:38:42.314Z,97990.72
2023-04-28T18:41:45.363Z,97991.84
2023-04-28T18:44:48.210Z,97995.78
2023-04-28T18:47:51.164Z,97987.22
2023-04-28T18:50:54.284Z,97988.53
2023-04-28T18:53:57.172Z,97991.13
2023-04-28T18:57:00.345Z,97995.75
2023-04-28T19:00:05.609Z,98000.94
2023-04-28T19:03:13.556Z,97998.63
2023-04-28T19:06:18.737Z,97995.97
2023-04-28T19:09:21.785Z,97996.91
2023-04-28T19:12:25.347Z,97991.63
2023-04-28T19:15:28.344Z,97999.16
2023-04-28T19:18:32.681Z,97995.84
2023-04-28T19:21:42.497Z,97996.19
2023-04-28T19:24:47.630Z,97994.00
2023-04-28T19:27:50.474Z,97979.38
2023-04-28T19:30:54.665Z,97981.94
2023-04-28T19:33:58.527Z,97980.28
2023-04-28T19:37:01.290Z,97980.72
2023-04-28T19:40:07.679Z,97984.78
2023-04-28T19:43:11.898Z,97985.81
2023-04-28T19:46:16.959Z,97986.50
2023-04-28T19:49:19.925Z,97989.59
2023-04-28T19:52:23.486Z,97988.50
2023-04-28T19:55:26.775Z,97988.25
2023-04-28T19:58:29.780Z,97990.09
2023-04-28T20:01:35.199Z,97986.91
2023-04-28T20:04:38.818Z,97978.00
2023-04-28T20:07:42.861Z,97985.50
2023-04-28T20:10:47.512Z,97987.03
2023-04-28T20:13:51.027Z,97979.69
2023-04-28T20:16:53.815Z,97979.28
2023-04-28T20:19:57.059Z,97990.09
2023-04-28T20:22:59.761Z,97987.72
2023-04-28T20:26:02.835Z,97988.72
2023-04-28T20:29:07.269Z,97984.81
2023-04-28T20:32:11.301Z,97986.91
2023-04-28T20:35:14.495Z,97980.00
2023-04-28T20:38:17.756Z,97989.38
2023-04-28T20:41:21.896Z,97985.03
2023-04-28T20:44:24.863Z,97975.94
2023-04-28T20:47:28.138Z,97979.28
2023-04-28T20:50:33.562Z,97986.28
2023-04-28T20:53:36.871Z,97971.09
2023-04-28T20:56:40.305Z,97978.75
2023-04-28T20:59:43.131Z,97971.19
2023-04-28T21:02:46.304Z,97961.16
2023-04-28T21:05:49.546Z,97955.91
2023-04-28T21:08:53.415Z,97954.06
2023-04-28T21:11:56.271Z,97951.66
2023-04-28T21:15:01.232Z,97954.81
2023-04-28T21:18:04.835Z,97959.41
2023-04-28T21:21:07.740Z,97957.00
2023-04-28T21:24:10.772Z,97948.81
2023-04-28T21:27:13.684Z,97954.47
2023-04-28T21:30:16.621Z,97952.66
2023-04-28T21:33:19.883Z,97962.69
2023-04-28T21:36:22.687Z,97945.72
2023-04-28T21:39:25.984Z,97941.38
2023-04-28T21:42:32.215Z,97941.38
2023-04-28T21:45:35.288Z,97949.13
2023-04-28T21:48:38.171Z,97941.00
2023-04-28T21:51:44.591Z,97943.13
2023-04-28T21:54:47.878Z,97944.44
2023-04-28T21:57:50.872Z,97954.25
2023-04-28T22:00:55.447Z,97957.09
2023-04-28T22:03:59.063Z,97953.78
2023-04-28T22:07:02.283Z,97955.00
2023-04-28T22:10:05.730Z,97956.66
2023-04-28T22:13:09.670Z,97948.16
2023-04-28T22:16:13.811Z,97952.69
2023-04-28T22:19:17.710Z,97941.88
2023-04-28T22:22:20.645Z,97954.69
2023-04-28T22:25:23.788Z,97948.47
2023-04-28T22:28:27.112Z,97942.84
2023-04-28T22:31:29.974Z,97942.56
2023-04-28T22:34:32.972Z,97936.09
2023-04-28T22:37:35.828Z,97928.72
2023-04-28T22:40:38.615Z,97934.66
2023-04-28T22:43:41.389Z,97924.25
2023-04-28T22:46:44.144Z,97922.22
2023-04-28T22:49:47.203Z,97921.53
2023-04-28T22:52:50.075Z,97919.16
2023-04-28T22:55:53.472Z,97927.56
2023-04-28T22:58:56.514Z,97921.78
2023-04-28T23:01:59.423Z,97918.81
2023-04-28T23:05:02.158Z,97919.72
2023-04-28T23:08:05.464Z,97921.34
2023-04-28T23:11:08.421Z,97924.97
2023-04-28T23:14:11.060Z,97916.09
2023-04-28T23:17:13.837Z,97913.78
2023-04-28T23:20:16.929Z,97899.41
2023-04-28T23:23:19.761Z,97903.13
2023-04-28T23:26:23.078Z,97900.34
2023-04-28T23:29:26.610Z,97894.19
2023-04-28T23:32:29.492Z,97891.78
2023-04-28T23:35:33.534Z,97884.19
2023-04-28T23:38:36.217Z,97878.50
2023-04-28T23:41:38.830Z,97877.22
2023-04-28T23:44:41.656Z,97872.56
2023-04-28T23:47:44.453Z,97869.25
2023-04-28T23:50:47.473Z,97863.09
2023-04-28T23:53:50.316Z,97866.34
2023-04-28T23:56:52.934Z,97871.25
2023-04-28T23:59:55.832Z,97860.53
